Time;durP1;ratioP1;P1;durP2;ratioP2;P2;SDS_P1;SDS_P2;PMS_P1;PMS_P2;Temp;Humidity;BMP_temperature;BMP_pressure;BME280_temperature;BME280_humidity;BME280_pressure;Samples;Min_cycle;Max_cycle;Signal;HPM_P1;HPM_P2
2022/11/06 00:00:25;;;;;;;11.70;5.07;;;6.00;99.90;;;;;;6131780;29;20059;-82
2022/11/06 00:03:26;;;;;;;18.25;4.97;;;6.10;99.90;;;;;;6132059;29;20059;-83
2022/11/06 00:09:54;;;;;;;10.73;4.85;;;6.10;99.90;;;;;;6112035;29;20051;-82
2022/11/06 00:12:56;;;;;;;10.07;5.22;;;6.10;99.90;;;;;;6134338;29;20075;-83
2022/11/06 00:16:02;;;;;;;8.70;4.22;;;6.00;99.90;;;;;;6135515;29;20059;-82
2022/11/06 00:19:04;;;;;;;9.70;4.38;;;5.90;99.90;;;;;;6133191;29;20047;-83
2022/11/06 00:22:07;;;;;;;9.50;4.22;;;5.90;99.90;;;;;;6132610;29;20044;-82
2022/11/06 00:25:09;;;;;;;8.85;3.40;;;5.80;99.90;;;;;;6132708;29;20050;-83
2022/11/06 00:28:11;;;;;;;8.95;5.95;;;5.70;99.90;;;;;;6132749;29;20056;-83
2022/11/06 00:31:14;;;;;;;8.52;4.63;;;5.70;99.90;;;;;;6132695;29;20043;-83
2022/11/06 00:34:16;;;;;;;8.05;4.57;;;5.60;99.90;;;;;;6133387;29;20248;-83
2022/11/06 00:37:19;;;;;;;11.40;4.55;;;5.50;99.90;;;;;;6132096;29;20059;-82
2022/11/06 00:40:21;;;;;;;7.38;3.88;;;5.40;99.90;;;;;;6131434;29;20052;-83
2022/11/06 00:43:23;;;;;;;11.52;5.10;;;5.30;99.90;;;;;;6132057;29;20051;-82
2022/11/06 00:46:25;;;;;;;10.23;3.35;;;5.30;99.90;;;;;;6131335;29;20063;-82
2022/11/06 00:49:27;;;;;;;8.48;4.28;;;5.20;99.90;;;;;;6137228;29;20051;-82
2022/11/06 00:52:30;;;;;;;7.57;3.78;;;5.20;99.90;;;;;;6130934;29;20051;-82
2022/11/06 00:55:32;;;;;;;7.25;4.32;;;5.00;99.90;;;;;;6131774;29;20055;-82
2022/11/06 00:58:35;;;;;;;9.25;3.75;;;5.00;99.90;;;;;;6132772;29;20434;-82
2022/11/06 01:01:40;;;;;;;11.70;4.43;;;4.90;99.90;;;;;;6134724;29;20052;-82
2022/11/06 01:04:42;;;;;;;12.05;3.90;;;4.80;99.90;;;;;;6135677;29;20059;-83
2022/11/06 01:07:45;;;;;;;7.60;3.83;;;4.70;99.90;;;;;;6136671;29;20059;-83
2022/11/06 01:10:46;;;;;;;13.43;3.95;;;4.70;99.90;;;;;;6135976;29;20091;-82
2022/11/06 01:13:50;;;;;;;13.65;5.13;;;4.70;99.90;;;;;;6132406;29;20059;-82
2022/11/06 01:16:52;;;;;;;9.25;3.47;;;4.60;99.90;;;;;;6132639;29;20517;-82
2022/11/06 01:19:54;;;;;;;5.97;3.78;;;4.60;99.90;;;;;;6132690;29;20047;-82
2022/11/06 01:22:57;;;;;;;10.90;3.45;;;4.60;99.90;;;;;;6132813;29;20063;-82
2022/11/06 01:26:00;;;;;;;7.75;3.80;;;4.50;99.90;;;;;;6132970;29;20062;-82
2022/11/06 01:29:01;;;;;;;11.88;3.92;;;4.60;99.90;;;;;;6131397;29;20048;-81
2022/11/06 01:32:03;;;;;;;5.88;3.25;;;4.50;99.90;;;;;;6131584;29;20414;-82
2022/11/06 01:35:05;;;;;;;5.57;3.05;;;4.50;99.90;;;;;;6134776;28;20047;-81
2022/11/06 01:38:08;;;;;;;7.22;3.33;;;4.50;99.90;;;;;;6154795;28;20047;-82
2022/11/06 01:41:13;;;;;;;8.88;3.35;;;4.50;99.90;;;;;;6155482;28;20043;-82
2022/11/06 01:44:51;;;;;;;7.00;2.95;;;4.40;99.90;;;;;;6155366;28;20047;-81
2022/11/06 01:47:53;;;;;;;3.95;2.35;;;4.40;99.90;;;;;;6155568;28;20062;-81
2022/11/06 01:50:58;;;;;;;6.10;2.55;;;4.40;99.90;;;;;;6179956;28;20501;-82
2022/11/06 01:54:04;;;;;;;11.07;4.10;;;4.30;99.90;;;;;;6178962;28;20042;-82
2022/11/06 01:57:06;;;;;;;14.13;4.10;;;4.20;99.90;;;;;;6179205;28;20058;-82
2022/11/06 02:00:09;;;;;;;7.88;3.70;;;4.20;99.90;;;;;;6179495;28;20057;-82
2022/11/06 02:03:12;;;;;;;10.85;3.55;;;4.10;99.90;;;;;;6179693;28;20059;-81
2022/11/06 02:06:14;;;;;;;6.53;3.28;;;4.10;99.90;;;;;;6179532;28;20053;-81
2022/11/06 02:09:18;;;;;;;10.75;3.28;;;4.10;99.90;;;;;;6178391;28;20054;-81
2022/11/06 02:12:31;;;;;;;6.55;3.45;;;4.10;99.90;;;;;;6179806;28;20513;-82
2022/11/06 02:15:39;;;;;;;10.20;4.15;;;4.00;99.90;;;;;;6179153;28;20057;-82
2022/11/06 02:18:55;;;;;;;6.15;3.38;;;4.00;99.90;;;;;;6178397;28;20509;-82
2022/11/06 02:22:20;;;;;;;12.45;3.72;;;4.00;99.90;;;;;;6178468;28;20043;-82
2022/11/06 02:25:37;;;;;;;17.83;4.38;;;4.00;99.90;;;;;;6178416;28;20047;-82
2022/11/06 02:28:44;;;;;;;5.18;3.28;;;3.90;99.90;;;;;;6178933;28;20043;-82
2022/11/06 02:31:48;;;;;;;10.43;3.47;;;3.90;99.90;;;;;;6180857;28;20077;-83
2022/11/06 02:34:52;;;;;;;6.25;3.30;;;3.90;99.90;;;;;;6182078;28;20054;-83
2022/11/06 02:37:57;;;;;;;6.97;3.55;;;3.90;99.90;;;;;;6181092;28;20047;-83
2022/11/06 02:41:04;;;;;;;7.45;3.75;;;3.90;99.90;;;;;;6181187;28;20054;-83
2022/11/06 02:44:10;;;;;;;6.47;3.28;;;3.80;99.90;;;;;;6181052;28;20520;-82
2022/11/06 02:47:14;;;;;;;8.43;3.28;;;3.80;99.90;;;;;;6181469;28;20054;-83
2022/11/06 02:50:21;;;;;;;7.82;3.70;;;3.70;99.90;;;;;;6180968;28;20042;-83
2022/11/06 02:53:25;;;;;;;5.57;3.00;;;3.70;99.90;;;;;;6181586;28;20129;-83
2022/11/06 02:56:32;;;;;;;6.78;2.95;;;3.70;99.90;;;;;;6181598;28;20049;-82
2022/11/06 02:59:43;;;;;;;6.13;2.23;;;3.70;99.90;;;;;;6180453;28;20516;-83
2022/11/06 03:02:50;;;;;;;5.65;3.20;;;3.70;99.90;;;;;;6181105;28;20054;-83
2022/11/06 03:05:57;;;;;;;4.75;2.53;;;3.70;99.90;;;;;;6180967;28;20047;-83
2022/11/06 03:09:04;;;;;;;23.52;2.92;;;3.80;99.90;;;;;;6180769;28;20054;-83
2022/11/06 03:12:18;;;;;;;9.40;2.80;;;3.70;99.90;;;;;;6181369;28;20516;-83
2022/11/06 03:15:27;;;;;;;6.63;2.88;;;3.70;99.90;;;;;;6181405;28;20058;-83
2022/11/06 03:18:36;;;;;;;6.25;2.70;;;3.60;99.90;;;;;;6180868;28;20054;-83
2022/11/06 03:21:47;;;;;;;7.38;2.50;;;3.60;99.90;;;;;;6180883;28;20416;-82
2022/11/06 03:24:53;;;;;;;10.00;3.35;;;3.60;99.90;;;;;;6181178;28;20055;-83
2022/11/06 03:28:02;;;;;;;4.65;2.40;;;3.50;99.90;;;;;;6180152;28;20051;-83
2022/11/06 03:31:09;;;;;;;4.75;2.50;;;3.50;99.90;;;;;;6181769;28;20130;-83
2022/11/06 03:34:16;;;;;;;2.87;1.70;;;3.50;99.90;;;;;;6181087;28;20053;-82
2022/11/06 03:37:24;;;;;;;5.68;2.22;;;3.50;99.90;;;;;;6180547;28;20043;-83
2022/11/06 03:40:29;;;;;;;5.15;2.28;;;3.40;99.90;;;;;;6180779;28;20058;-83
2022/11/06 03:43:35;;;;;;;16.05;3.45;;;3.50;99.90;;;;;;6181920;28;20523;-83
2022/11/06 03:46:43;;;;;;;11.73;4.00;;;3.50;99.90;;;;;;6183165;28;20054;-83
2022/11/06 03:49:51;;;;;;;5.75;2.85;;;3.50;99.90;;;;;;6182775;28;20054;-83
2022/11/06 03:52:56;;;;;;;9.63;3.78;;;3.50;99.90;;;;;;6186560;28;20417;-83
2022/11/06 03:56:04;;;;;;;7.30;3.45;;;3.40;99.90;;;;;;6179378;28;20062;-83
2022/11/06 03:59:08;;;;;;;8.45;2.70;;;3.40;99.90;;;;;;6179354;28;20089;-83
2022/11/06 04:02:14;;;;;;;8.60;3.90;;;3.40;99.90;;;;;;6178939;28;20091;-83
2022/11/06 04:05:20;;;;;;;7.50;4.60;;;3.40;99.90;;;;;;6178989;28;20409;-83
2022/11/06 04:15:06;;;;;;;6.63;2.65;;;3.30;99.90;;;;;;6179470;28;20050;-83
2022/11/06 04:18:13;;;;;;;5.55;2.72;;;3.30;99.90;;;;;;6178721;28;20057;-83
2022/11/06 04:21:26;;;;;;;6.82;3.00;;;3.20;99.90;;;;;;6178817;28;20047;-83
2022/11/06 04:28:08;;;;;;;11.13;3.28;;;3.20;99.90;;;;;;6178846;28;20055;-83
2022/11/06 04:31:14;;;;;;;10.23;2.67;;;3.20;99.90;;;;;;6179694;28;20047;-82
2022/11/06 04:34:22;;;;;;;8.23;2.70;;;3.20;99.90;;;;;;6188110;28;20053;-83
2022/11/06 04:37:32;;;;;;;5.97;2.47;;;3.20;99.90;;;;;;6191509;28;20051;-83
2022/11/06 04:40:43;;;;;;;11.82;5.63;;;3.10;99.90;;;;;;6187967;28;20053;-83
2022/11/06 04:43:49;;;;;;;10.15;3.17;;;3.10;99.90;;;;;;6185979;28;20050;-83
2022/11/06 04:46:55;;;;;;;7.50;2.70;;;3.10;99.90;;;;;;6185162;28;20047;-83
2022/11/06 04:50:01;;;;;;;6.75;3.03;;;3.10;99.90;;;;;;6183999;28;20050;-83
2022/11/06 04:53:05;;;;;;;16.20;5.35;;;3.00;99.90;;;;;;6183970;28;20051;-83
2022/11/06 04:56:10;;;;;;;35.20;9.02;;;3.00;99.90;;;;;;6184642;28;20051;-83
2022/11/06 04:59:15;;;;;;;432.42;116.22;;;3.00;99.90;;;;;;6183275;28;20057;-83
2022/11/06 05:02:16;;;;;;;45.95;19.05;;;3.00;99.90;;;;;;6185676;28;20047;-83
2022/11/06 05:05:19;;;;;;;20.17;8.55;;;3.10;99.90;;;;;;6184638;28;20057;-82
2022/11/06 05:08:21;;;;;;;9.95;3.72;;;3.30;99.90;;;;;;6183969;28;20055;-83
2022/11/06 05:11:23;;;;;;;11.65;4.55;;;3.40;99.90;;;;;;6185045;28;20051;-82
2022/11/06 05:14:25;;;;;;;10.07;4.82;;;3.50;99.90;;;;;;6183620;28;20057;-83
2022/11/06 05:17:26;;;;;;;12.65;4.70;;;3.70;99.90;;;;;;6183599;28;20042;-83
2022/11/06 05:20:30;;;;;;;20.95;4.63;;;3.90;99.90;;;;;;6184115;28;20046;-82
2022/11/06 05:23:30;;;;;;;13.88;4.50;;;4.00;99.90;;;;;;6184530;28;20051;-83
2022/11/06 05:26:32;;;;;;;16.23;3.83;;;4.10;99.90;;;;;;6183455;28;20050;-82
2022/11/06 05:29:34;;;;;;;12.55;4.22;;;4.20;99.90;;;;;;6182765;28;20050;-82
2022/11/06 05:32:36;;;;;;;17.05;3.95;;;4.40;99.90;;;;;;6183307;28;20051;-82
2022/11/06 05:35:38;;;;;;;10.90;4.38;;;4.50;99.90;;;;;;6183672;28;20054;-84
2022/11/06 05:38:40;;;;;;;14.75;4.05;;;4.60;99.90;;;;;;6183015;28;20425;-82
2022/11/06 05:41:42;;;;;;;22.60;6.25;;;4.60;99.90;;;;;;6182056;28;20501;-82
2022/11/06 05:44:43;;;;;;;34.45;5.72;;;4.70;99.90;;;;;;6182293;28;20525;-82
2022/11/06 05:47:45;;;;;;;52.45;5.82;;;4.60;99.90;;;;;;6183077;28;20054;-83
2022/11/06 05:50:48;;;;;;;30.75;4.93;;;4.40;99.90;;;;;;6182407;28;20054;-83
2022/11/06 05:53:50;;;;;;;18.73;4.65;;;4.40;99.90;;;;;;6181831;28;20428;-83
2022/11/06 05:56:51;;;;;;;15.23;4.53;;;4.40;99.90;;;;;;6182940;28;20062;-83
2022/11/06 05:59:53;;;;;;;32.55;5.35;;;4.60;99.90;;;;;;6182321;28;20058;-82
2022/11/06 06:02:55;;;;;;;15.10;4.15;;;4.60;99.90;;;;;;6183274;28;20053;-82
2022/11/06 06:05:58;;;;;;;22.08;4.30;;;4.50;99.90;;;;;;6183144;28;20535;-82
2022/11/06 06:08:59;;;;;;;8.85;3.95;;;4.50;99.90;;;;;;6179552;28;20516;-82
2022/11/06 06:12:01;;;;;;;25.13;4.40;;;4.60;99.90;;;;;;6179985;28;20046;-82
2022/11/06 06:15:03;;;;;;;25.08;4.53;;;4.60;99.90;;;;;;6184286;28;20058;-82
2022/11/06 06:18:05;;;;;;;10.65;3.33;;;4.60;99.90;;;;;;6183810;28;20058;-82
2022/11/06 06:21:08;;;;;;;12.15;4.15;;;4.60;99.90;;;;;;6185685;28;20046;-81
2022/11/06 06:24:10;;;;;;;10.23;3.63;;;4.50;99.90;;;;;;6185063;28;20054;-82
2022/11/06 06:27:11;;;;;;;12.55;3.33;;;4.50;99.90;;;;;;6185092;28;20055;-82
2022/11/06 06:30:13;;;;;;;11.68;3.58;;;4.60;99.90;;;;;;6184509;28;20050;-82
2022/11/06 06:33:15;;;;;;;7.20;3.15;;;4.50;99.90;;;;;;6185488;28;20321;-82
2022/11/06 06:36:18;;;;;;;10.15;3.88;;;4.50;99.90;;;;;;6183828;28;20050;-82
2022/11/06 06:39:20;;;;;;;7.60;3.30;;;4.50;99.90;;;;;;6182744;28;20051;-82
2022/11/06 06:42:22;;;;;;;7.85;3.42;;;4.50;99.90;;;;;;6182940;28;20049;-82
2022/11/06 06:45:24;;;;;;;5.22;2.92;;;4.40;99.90;;;;;;6182939;28;20051;-82
2022/11/06 06:48:27;;;;;;;12.15;3.88;;;4.30;99.90;;;;;;6183801;28;20493;-82
2022/11/06 06:51:30;;;;;;;14.13;3.40;;;4.20;99.90;;;;;;6187789;28;20047;-81
2022/11/06 06:54:31;;;;;;;14.50;3.65;;;4.10;99.90;;;;;;6183484;28;20042;-83
2022/11/06 06:57:33;;;;;;;9.13;3.78;;;4.10;99.90;;;;;;6179716;28;20054;-82
2022/11/06 07:00:35;;;;;;;7.68;3.40;;;4.10;99.90;;;;;;6180471;28;20046;-82
2022/11/06 07:03:37;;;;;;;6.43;3.38;;;4.20;99.90;;;;;;6180993;28;20046;-82
2022/11/06 07:06:40;;;;;;;11.30;3.78;;;4.20;99.90;;;;;;6180814;28;20050;-83
2022/11/06 07:09:41;;;;;;;9.70;3.78;;;4.30;99.90;;;;;;6180998;28;20043;-82
2022/11/06 07:12:43;;;;;;;9.10;3.28;;;4.30;99.90;;;;;;6180654;28;20065;-81
2022/11/06 07:15:46;;;;;;;8.85;4.43;;;4.40;99.90;;;;;;6182098;28;20077;-82
2022/11/06 07:18:48;;;;;;;19.20;3.95;;;4.30;99.90;;;;;;6179564;28;20042;-82
2022/11/06 07:21:52;;;;;;;27.33;8.75;;;4.40;99.90;;;;;;6181002;28;20050;-82
2022/11/06 07:24:54;;;;;;;15.45;7.85;;;4.50;99.90;;;;;;6181545;28;20051;-83
2022/11/06 07:27:59;;;;;;;17.35;5.13;;;4.60;99.90;;;;;;6180795;28;20061;-82
2022/11/06 07:31:03;;;;;;;12.15;4.45;;;4.70;99.90;;;;;;6182658;28;20051;-83
2022/11/06 07:34:05;;;;;;;13.32;6.22;;;4.90;99.90;;;;;;6181166;28;20053;-82
2022/11/06 07:37:08;;;;;;;22.00;8.75;;;5.10;99.90;;;;;;6181636;28;20051;-82
2022/11/06 07:40:10;;;;;;;22.45;10.23;;;5.40;99.90;;;;;;6180809;28;20059;-83
2022/11/06 07:43:12;;;;;;;10.70;4.63;;;5.60;99.90;;;;;;6181098;28;20421;-83
2022/11/06 07:46:14;;;;;;;18.23;5.85;;;5.90;99.90;;;;;;6180382;28;20061;-83
2022/11/06 07:49:16;;;;;;;13.02;8.15;;;6.10;99.90;;;;;;6176967;28;20057;-82
2022/11/06 07:52:19;;;;;;;15.15;6.03;;;6.30;99.90;;;;;;6178320;28;20042;-83
2022/11/06 07:55:20;;;;;;;9.02;4.30;;;6.60;99.90;;;;;;6179880;28;20505;-83
2022/11/06 07:58:23;;;;;;;10.45;4.65;;;6.80;99.90;;;;;;6181934;28;20046;-83
2022/11/06 08:01:25;;;;;;;13.98;6.20;;;7.10;99.90;;;;;;6177954;28;20042;-82
2022/11/06 08:04:27;;;;;;;11.80;6.07;;;7.50;99.90;;;;;;6182900;28;20054;-83
2022/11/06 08:07:30;;;;;;;16.67;7.28;;;7.80;99.90;;;;;;6181830;28;20054;-82
2022/11/06 08:10:31;;;;;;;17.60;7.28;;;8.20;99.90;;;;;;6183265;28;20047;-82
2022/11/06 08:13:34;;;;;;;17.05;6.28;;;8.60;99.90;;;;;;6181621;28;20042;-82
2022/11/06 08:16:35;;;;;;;11.27;6.70;;;9.00;99.90;;;;;;6180557;28;20214;-81
2022/11/06 08:19:37;;;;;;;14.95;8.20;;;9.60;99.90;;;;;;6108311;28;20055;-82
2022/11/06 08:22:40;;;;;;;11.57;6.40;;;10.20;99.90;;;;;;6176696;28;20063;-83
2022/11/06 08:25:42;;;;;;;7.32;4.60;;;10.40;99.90;;;;;;6183274;28;20057;-81
2022/11/06 08:28:44;;;;;;;14.35;4.65;;;10.60;99.90;;;;;;6153465;28;20061;-83
2022/11/06 08:31:45;;;;;;;8.85;5.60;;;10.70;99.90;;;;;;6193398;23;20047;-82
2022/11/06 08:34:47;;;;;;;11.32;5.13;;;10.70;99.90;;;;;;6181449;28;20054;-84
2022/11/06 08:37:50;;;;;;;7.28;4.93;;;10.80;99.90;;;;;;6180257;28;20440;-84
2022/11/06 08:40:52;;;;;;;7.75;5.40;;;11.00;99.90;;;;;;6179542;28;20061;-84
2022/11/06 08:43:56;;;;;;;10.13;5.35;;;11.10;99.90;;;;;;6180117;28;20049;-84
2022/11/06 08:46:58;;;;;;;7.75;4.00;;;11.20;99.90;;;;;;6181054;28;20051;-84
2022/11/06 08:50:00;;;;;;;10.18;5.45;;;11.00;99.90;;;;;;6179039;28;20058;-83
2022/11/06 08:53:05;;;;;;;9.07;4.70;;;10.60;99.90;;;;;;6179293;28;20133;-83
2022/11/06 08:56:09;;;;;;;9.65;4.50;;;10.40;99.90;;;;;;6179994;28;20146;-84
2022/11/06 08:59:14;;;;;;;8.23;4.38;;;10.20;99.90;;;;;;6180022;28;20054;-82
2022/11/06 09:02:18;;;;;;;10.95;5.32;;;10.10;99.90;;;;;;6178393;28;20045;-83
2022/11/06 09:05:19;;;;;;;8.10;5.07;;;10.00;99.90;;;;;;6178558;28;20058;-83
2022/11/06 09:08:23;;;;;;;8.18;4.10;;;10.00;99.90;;;;;;6177799;28;20043;-83
2022/11/06 09:11:24;;;;;;;7.10;3.88;;;10.10;99.90;;;;;;6177905;28;20109;-82
2022/11/06 09:14:26;;;;;;;11.68;5.03;;;10.30;99.90;;;;;;6177292;28;20051;-82
2022/11/06 09:17:28;;;;;;;8.27;3.25;;;10.30;99.90;;;;;;6176062;28;20575;-83
2022/11/06 09:20:30;;;;;;;7.05;4.22;;;10.40;99.90;;;;;;6180688;28;20053;-82
2022/11/06 09:23:33;;;;;;;7.93;3.63;;;10.50;99.90;;;;;;6181755;28;20047;-82
2022/11/06 09:26:35;;;;;;;6.30;2.95;;;10.50;99.90;;;;;;6181274;28;20139;-83
2022/11/06 09:29:39;;;;;;;12.68;3.67;;;10.60;99.90;;;;;;6180117;28;20046;-83
2022/11/06 09:32:46;;;;;;;6.88;3.03;;;10.90;99.90;;;;;;6181039;28;20524;-82
2022/11/06 09:35:48;;;;;;;4.93;3.65;;;11.30;99.90;;;;;;6181966;28;20412;-84
2022/11/06 09:38:51;;;;;;;5.28;2.97;;;11.80;99.90;;;;;;6181221;28;20050;-84
2022/11/06 09:42:47;;;;;;;6.90;2.75;;;12.30;99.90;;;;;;6179758;28;20070;-84
2022/11/06 09:45:50;;;;;;;6.20;3.20;;;12.80;99.90;;;;;;6179033;28;20058;-83
2022/11/06 09:48:58;;;;;;;7.43;2.78;;;13.40;99.90;;;;;;6178979;28;20054;-84
2022/11/06 09:52:05;;;;;;;3.55;2.15;;;13.90;99.60;;;;;;6180217;28;20054;-83
2022/11/06 09:55:15;;;;;;;4.22;2.30;;;14.30;99.00;;;;;;6179620;28;20054;-83
2022/11/06 09:58:21;;;;;;;4.60;2.55;;;14.70;98.50;;;;;;6178506;28;20047;-83
2022/11/06 10:01:25;;;;;;;3.88;2.05;;;15.20;97.80;;;;;;6179142;28;20055;-84
2022/11/06 10:04:38;;;;;;;9.55;2.45;;;15.50;97.20;;;;;;6180140;28;20049;-84
2022/11/06 10:07:42;;;;;;;4.65;1.65;;;15.80;96.30;;;;;;6180908;28;20077;-83
2022/11/06 10:10:55;;;;;;;7.45;2.30;;;16.00;95.80;;;;;;6177801;28;20143;-84
2022/11/06 10:14:06;;;;;;;2.83;1.80;;;16.10;95.10;;;;;;6179292;28;20058;-82
2022/11/06 10:17:17;;;;;;;29.13;9.32;;;16.20;94.40;;;;;;6179523;28;20043;-84
2022/11/06 10:20:21;;;;;;;5.25;3.25;;;16.30;93.80;;;;;;6179495;28;20066;-84
2022/11/06 10:23:31;;;;;;;3.33;2.13;;;16.20;93.40;;;;;;6181756;28;20133;-84
2022/11/06 10:26:39;;;;;;;7.22;2.20;;;16.20;93.00;;;;;;6203459;28;20125;-83
2022/11/06 10:29:57;;;;;;;6.03;1.80;;;16.10;92.60;;;;;;6195721;28;20051;-84
2022/11/06 10:33:10;;;;;;;2.60;1.55;;;16.20;92.20;;;;;;6189246;28;20114;-82
2022/11/06 10:36:17;;;;;;;4.60;1.52;;;16.50;92.00;;;;;;6194600;28;20054;-86
2022/11/06 10:39:22;;;;;;;5.50;1.50;;;16.80;91.60;;;;;;6160468;29;20055;-83
2022/11/06 10:42:31;;;;;;;3.70;1.25;;;16.70;90.90;;;;;;6165313;28;20496;-84
2022/11/06 10:45:33;;;;;;;4.63;1.58;;;16.90;90.40;;;;;;6195135;28;20067;-84
2022/11/06 10:48:43;;;;;;;5.55;1.33;;;17.20;90.00;;;;;;6180474;28;20039;-83
2022/11/06 10:52:08;;;;;;;3.08;1.48;;;17.40;88.80;;;;;;6182666;28;20042;-82
2022/11/06 10:55:39;;;;;;;4.28;1.60;;;17.60;87.90;;;;;;6193437;28;20496;-84
2022/11/06 10:58:42;;;;;;;3.45;1.15;;;17.80;87.10;;;;;;6189163;28;20054;-84
2022/11/06 11:01:44;;;;;;;2.97;1.45;;;18.10;85.80;;;;;;6189787;28;20055;-84
2022/11/06 11:04:46;;;;;;;3.63;1.63;;;18.30;85.20;;;;;;6208943;28;20061;-84
2022/11/06 11:07:49;;;;;;;5.38;1.92;;;18.60;83.60;;;;;;6192334;28;20061;-84
2022/11/06 11:10:51;;;;;;;5.50;1.90;;;18.90;82.30;;;;;;6193667;28;20081;-84
2022/11/06 11:14:23;;;;;;;4.82;1.88;;;19.10;81.10;;;;;;6193091;28;20047;-84
2022/11/06 11:17:25;;;;;;;4.20;1.40;;;19.30;80.00;;;;;;6184924;28;20039;-84
2022/11/06 11:20:32;;;;;;;5.10;2.50;;;19.60;78.90;;;;;;6197289;28;20046;-84
2022/11/06 11:23:34;;;;;;;3.10;1.60;;;19.80;77.30;;;;;;6193360;28;20070;-83
2022/11/06 11:26:39;;;;;;;5.85;2.10;;;19.80;76.80;;;;;;6193455;28;20039;-83
2022/11/06 11:29:47;;;;;;;7.80;2.15;;;19.70;75.60;;;;;;6180802;28;20047;-83
2022/11/06 11:32:49;;;;;;;2.85;1.60;;;19.80;75.00;;;;;;6183731;28;20074;-84
2022/11/06 11:35:51;;;;;;;8.13;1.50;;;19.90;74.60;;;;;;6177025;28;20054;-84
2022/11/06 11:38:53;;;;;;;3.03;1.60;;;20.10;74.30;;;;;;6197596;28;20042;-82
2022/11/06 11:42:15;;;;;;;4.82;2.05;;;20.40;73.10;;;;;;6202258;28;20054;-83
2022/11/06 11:45:20;;;;;;;3.38;1.40;;;20.60;71.90;;;;;;6202215;28;20096;-82
2022/11/06 11:48:21;;;;;;;4.32;2.33;;;20.50;71.20;;;;;;6201423;28;20057;-83
2022/11/06 11:51:30;;;;;;;3.70;1.50;;;20.30;71.20;;;;;;6203623;28;20050;-84
2022/11/06 11:54:34;;;;;;;2.35;1.40;;;20.30;70.70;;;;;;6199955;28;20039;-83
2022/11/06 11:57:35;;;;;;;2.17;1.15;;;20.00;70.30;;;;;;6199611;28;20042;-83
2022/11/06 12:00:51;;;;;;;2.55;1.20;;;19.90;69.90;;;;;;6200755;28;20042;-83
2022/11/06 12:03:53;;;;;;;3.17;1.75;;;19.60;69.80;;;;;;6199852;28;20557;-83
2022/11/06 12:07:02;;;;;;;9.25;2.42;;;19.50;69.60;;;;;;6201298;28;20050;-82
2022/11/06 12:10:21;;;;;;;5.25;2.78;;;19.30;69.90;;;;;;6200166;28;20046;-83
2022/11/06 12:13:24;;;;;;;3.83;1.40;;;19.10;70.20;;;;;;6188130;28;20044;-83
2022/11/06 12:16:28;;;;;;;3.10;1.83;;;18.70;70.40;;;;;;6152156;28;20055;-82
2022/11/06 12:19:33;;;;;;;4.38;1.80;;;18.60;70.60;;;;;;6152192;29;20055;-82
2022/11/06 12:22:40;;;;;;;2.67;1.35;;;18.40;70.90;;;;;;6151811;28;20051;-83
2022/11/06 12:25:44;;;;;;;3.00;1.63;;;18.10;71.10;;;;;;6153182;28;20051;-84
2022/11/06 12:28:51;;;;;;;3.83;1.58;;;18.00;71.60;;;;;;6154306;28;20091;-83
2022/11/06 12:32:02;;;;;;;3.92;1.90;;;17.70;71.80;;;;;;6166811;28;20437;-83
2022/11/06 12:35:13;;;;;;;4.45;1.38;;;17.50;72.00;;;;;;6177627;28;20051;-83
2022/11/06 12:38:24;;;;;;;14.55;6.50;;;17.30;72.40;;;;;;6176853;28;20288;-83
2022/11/06 12:41:29;;;;;;;9.85;4.57;;;17.10;72.80;;;;;;6176625;28;20062;-83
2022/11/06 12:44:31;;;;;;;4.45;2.42;;;16.90;73.40;;;;;;6176538;28;20070;-83
2022/11/06 12:47:45;;;;;;;6.72;3.20;;;16.80;73.70;;;;;;6176478;28;20050;-83
2022/11/06 12:50:55;;;;;;;5.85;3.05;;;16.60;74.10;;;;;;6176937;28;20054;-83
2022/11/06 12:54:12;;;;;;;7.80;3.40;;;16.60;74.30;;;;;;6175641;28;20084;-82
2022/11/06 12:57:24;;;;;;;5.68;3.85;;;16.60;74.40;;;;;;6179461;28;20043;-84
2022/11/06 13:00:36;;;;;;;4.93;2.70;;;16.50;74.50;;;;;;6179810;28;20125;-83
2022/11/06 13:04:01;;;;;;;4.93;1.90;;;16.40;74.60;;;;;;6179796;28;20047;-82
2022/11/06 13:07:30;;;;;;;3.20;2.30;;;16.40;74.90;;;;;;6183994;28;20074;-82
2022/11/06 13:10:43;;;;;;;3.23;1.83;;;16.20;75.20;;;;;;6183886;28;20047;-84
2022/11/06 13:14:00;;;;;;;2.95;1.83;;;16.20;75.80;;;;;;6184358;28;20043;-84
2022/11/06 13:17:10;;;;;;;3.13;2.05;;;16.00;76.10;;;;;;6183733;28;20051;-84
2022/11/06 13:20:21;;;;;;;3.38;2.08;;;15.90;76.60;;;;;;6183479;28;20051;-84
2022/11/06 13:23:28;;;;;;;5.32;2.50;;;15.90;77.10;;;;;;6180389;28;20623;-81
2022/11/06 13:26:37;;;;;;;5.40;2.83;;;15.70;77.40;;;;;;6180260;28;20207;-82
2022/11/06 13:29:40;;;;;;;9.02;3.83;;;15.60;77.90;;;;;;6180650;28;20061;-83
2022/11/06 13:32:46;;;;;;;4.03;2.58;;;15.60;78.30;;;;;;6168715;28;20047;-81
2022/11/06 13:35:49;;;;;;;3.40;2.20;;;15.60;78.70;;;;;;6156488;29;20081;-83
2022/11/06 13:38:55;;;;;;;2.90;1.77;;;15.50;79.00;;;;;;6155325;28;20050;-82
2022/11/06 13:41:58;;;;;;;3.90;2.08;;;15.40;79.20;;;;;;6154875;28;20051;-83
2022/11/06 13:45:01;;;;;;;3.92;2.38;;;15.30;79.20;;;;;;6155174;28;20421;-83
2022/11/06 13:48:19;;;;;;;7.65;2.30;;;15.20;79.70;;;;;;6155050;28;20051;-81
2022/11/06 13:51:32;;;;;;;2.88;1.92;;;15.10;80.20;;;;;;6155389;29;20054;-82
2022/11/06 13:54:56;;;;;;;6.97;3.03;;;15.00;80.50;;;;;;6154852;28;20051;-82
2022/11/06 13:58:23;;;;;;;5.13;2.38;;;14.90;80.80;;;;;;6154468;28;20083;-82
2022/11/06 14:01:42;;;;;;;4.95;2.95;;;14.80;81.40;;;;;;6154835;28;20059;-82
2022/11/06 14:05:15;;;;;;;9.52;4.03;;;14.70;81.70;;;;;;6174246;28;20135;-81
2022/11/06 14:08:22;;;;;;;11.25;6.38;;;14.50;82.30;;;;;;6167889;28;20049;-82
2022/11/06 14:11:29;;;;;;;13.38;6.68;;;14.40;82.90;;;;;;6159641;29;20066;-83
2022/11/06 14:14:33;;;;;;;10.68;5.63;;;14.30;83.60;;;;;;6158701;28;20043;-82
2022/11/06 14:17:34;;;;;;;8.40;4.80;;;14.20;84.30;;;;;;6157798;28;20043;-82
2022/11/06 14:20:38;;;;;;;7.80;5.20;;;14.10;84.80;;;;;;6156546;28;20047;-83
2022/11/06 14:23:53;;;;;;;11.02;5.45;;;14.10;85.50;;;;;;6157920;28;20058;-83
2022/11/06 14:26:55;;;;;;;8.48;4.88;;;14.00;86.10;;;;;;6162579;28;20341;-83
2022/11/06 14:29:59;;;;;;;8.40;5.28;;;14.00;86.50;;;;;;6203232;28;20423;-83
2022/11/06 14:33:03;;;;;;;14.95;6.47;;;14.00;87.00;;;;;;6195118;28;20046;-84
2022/11/06 14:36:13;;;;;;;10.10;5.97;;;13.90;87.30;;;;;;6179343;28;20062;-83
2022/11/06 14:39:16;;;;;;;10.02;6.30;;;13.90;88.00;;;;;;6179878;28;20053;-83
2022/11/06 14:42:28;;;;;;;9.57;6.13;;;13.70;88.10;;;;;;6178006;28;20046;-83
2022/11/06 14:45:30;;;;;;;12.80;6.13;;;13.60;88.70;;;;;;6178082;28;20043;-83
2022/11/06 14:48:36;;;;;;;11.60;6.38;;;13.50;88.90;;;;;;6177545;28;20053;-84
2022/11/06 14:51:38;;;;;;;12.02;6.85;;;13.30;89.30;;;;;;6177776;28;20081;-83
2022/11/06 14:54:52;;;;;;;12.27;6.35;;;13.30;90.00;;;;;;6177817;28;20049;-83
2022/11/06 14:57:55;;;;;;;9.07;6.70;;;13.30;90.10;;;;;;6176993;28;20520;-84
2022/11/06 15:01:00;;;;;;;11.75;7.18;;;13.20;90.20;;;;;;6176921;28;20054;-85
2022/11/06 15:04:05;;;;;;;9.30;4.75;;;13.20;90.30;;;;;;6176995;28;20085;-84
2022/11/06 15:07:09;;;;;;;8.98;5.85;;;13.20;90.40;;;;;;6176891;28;20058;-85
2022/11/06 15:10:44;;;;;;;8.88;5.47;;;13.10;90.50;;;;;;6176181;28;20046;-84
2022/11/06 15:13:47;;;;;;;12.60;6.63;;;12.90;90.70;;;;;;6177204;28;20043;-83
2022/11/06 15:16:51;;;;;;;11.98;7.00;;;12.90;90.80;;;;;;6176467;28;20046;-83
2022/11/06 15:20:12;;;;;;;10.75;6.68;;;12.80;90.90;;;;;;6175419;28;20587;-83
2022/11/06 15:23:19;;;;;;;12.80;5.72;;;12.70;91.10;;;;;;6174096;28;20054;-84
2022/11/06 15:26:25;;;;;;;11.98;6.68;;;12.60;91.10;;;;;;6175527;28;20057;-83
2022/11/06 15:29:31;;;;;;;11.23;6.85;;;12.40;91.40;;;;;;6176401;28;20047;-84
2022/11/06 15:32:40;;;;;;;12.38;6.50;;;12.30;91.70;;;;;;6176133;28;20043;-85
2022/11/06 15:35:43;;;;;;;11.10;5.35;;;12.30;91.80;;;;;;6155278;28;20055;-83
2022/11/06 15:38:45;;;;;;;12.27;6.50;;;12.30;91.90;;;;;;6151791;28;20054;-84
2022/11/06 15:41:47;;;;;;;9.40;4.93;;;12.20;92.00;;;;;;6153451;28;20051;-83
2022/11/06 15:44:51;;;;;;;9.38;4.45;;;12.20;92.10;;;;;;6152376;28;20054;-82
2022/11/06 15:47:55;;;;;;;9.82;5.95;;;12.20;92.20;;;;;;6153405;28;20054;-84
2022/11/06 15:50:57;;;;;;;12.52;5.25;;;12.10;92.30;;;;;;6153869;28;20066;-84
2022/11/06 15:53:58;;;;;;;9.20;5.07;;;12.00;92.40;;;;;;6153500;28;20047;-83
2022/11/06 15:57:02;;;;;;;8.10;5.45;;;12.00;92.60;;;;;;6153560;28;20050;-84
2022/11/06 16:00:10;;;;;;;12.82;6.40;;;12.00;93.00;;;;;;6153207;28;20059;-82
2022/11/06 16:03:14;;;;;;;9.90;6.05;;;12.00;92.80;;;;;;6152756;28;20051;-83
2022/11/06 16:06:17;;;;;;;8.10;4.72;;;12.00;92.90;;;;;;6151293;28;20054;-82
2022/11/06 16:09:21;;;;;;;10.18;5.35;;;12.00;93.00;;;;;;6152676;28;20051;-82
2022/11/06 16:12:23;;;;;;;7.22;4.50;;;12.00;93.10;;;;;;6153955;28;20057;-84
2022/11/06 16:15:48;;;;;;;10.52;5.07;;;12.00;93.10;;;;;;6159872;28;20049;-82
2022/11/06 16:18:49;;;;;;;10.15;4.90;;;11.90;93.20;;;;;;6147047;29;20102;-83
2022/11/06 16:21:55;;;;;;;7.00;4.53;;;11.90;93.20;;;;;;6151102;28;20050;-83